sensor_id;sensor_type;location;lat;lon;timestamp;pressure;altitude;pressure_sealevel;temperature;humidity
77537;BME280;67783;51.656;16.106;2023-08-01T00:00:48;100568.02;;;23.05;50.51
77537;BME280;67783;51.656;16.106;2023-08-01T00:04:18;100570.17;;;23.10;50.55
77537;BME280;67783;51.656;16.106;2023-08-01T00:07:34;100559.01;;;23.11;50.58
77537;BME280;67783;51.656;16.106;2023-08-01T00:17:58;100551.88;;;23.10;50.45
77537;BME280;67783;51.656;16.106;2023-08-01T00:21:16;100547.04;;;23.12;50.35
77537;BME280;67783;51.656;16.106;2023-08-01T00:24:37;100545.82;;;23.15;50.09
77537;BME280;67783;51.656;16.106;2023-08-01T00:27:47;100536.55;;;23.16;50.37
77537;BME280;67783;51.656;16.106;2023-08-01T00:31:04;100518.84;;;23.12;50.27
77537;BME280;67783;51.656;16.106;2023-08-01T00:34:16;100531.08;;;23.16;50.10
77537;BME280;67783;51.656;16.106;2023-08-01T00:37:43;100524.76;;;23.15;50.20
77537;BME280;67783;51.656;16.106;2023-08-01T00:40:59;100519.95;;;23.17;50.36
77537;BME280;67783;51.656;16.106;2023-08-01T00:44:17;100514.66;;;23.16;50.42
77537;BME280;67783;51.656;16.106;2023-08-01T00:47:37;100503.73;;;23.16;50.38
77537;BME280;67783;51.656;16.106;2023-08-01T00:50:48;100500.36;;;23.14;50.10
77537;BME280;67783;51.656;16.106;2023-08-01T00:53:54;100497.23;;;23.17;50.34
77537;BME280;67783;51.656;16.106;2023-08-01T00:57:12;100497.23;;;23.17;50.35
77537;BME280;67783;51.656;16.106;2023-08-01T01:00:28;100492.16;;;23.14;50.34
77537;BME280;67783;51.656;16.106;2023-08-01T01:03:37;100492.79;;;23.16;50.42
77537;BME280;67783;51.656;16.106;2023-08-01T01:06:50;100486.02;;;23.12;50.57
77537;BME280;67783;51.656;16.106;2023-08-01T01:10:13;100478.89;;;23.11;50.72
77537;BME280;67783;51.656;16.106;2023-08-01T01:13:21;100468.98;;;23.10;50.63
77537;BME280;67783;51.656;16.106;2023-08-01T01:16:31;100470.68;;;23.11;50.65
77537;BME280;67783;51.656;16.106;2023-08-01T01:19:38;100461.16;;;23.07;50.80
77537;BME280;67783;51.656;16.106;2023-08-01T01:22:57;100465.99;;;23.05;51.11
77537;BME280;67783;51.656;16.106;2023-08-01T01:26:09;100464.30;;;23.04;51.12
77537;BME280;67783;51.656;16.106;2023-08-01T01:29:22;100464.03;;;22.98;51.35
77537;BME280;67783;51.656;16.106;2023-08-01T01:32:39;100455.79;;;22.92;51.62
77537;BME280;67783;51.656;16.106;2023-08-01T01:35:50;100452.20;;;22.91;51.43
77537;BME280;67783;51.656;16.106;2023-08-01T01:38:59;100441.02;;;22.86;51.68
77537;BME280;67783;51.656;16.106;2023-08-01T01:42:13;100406.72;;;22.63;51.96
77537;BME280;67783;51.656;16.106;2023-08-01T01:45:31;100435.69;;;22.78;52.24
77537;BME280;67783;51.656;16.106;2023-08-01T01:48:50;100433.17;;;22.77;51.80
77537;BME280;67783;51.656;16.106;2023-08-01T01:51:54;100427.63;;;22.70;51.86
77537;BME280;67783;51.656;16.106;2023-08-01T01:55:10;100426.88;;;22.62;52.12
77537;BME280;67783;51.656;16.106;2023-08-01T01:58:24;100423.70;;;22.58;52.00
77537;BME280;67783;51.656;16.106;2023-08-01T02:05:11;100415.78;;;22.42;52.80
77537;BME280;67783;51.656;16.106;2023-08-01T02:08:21;100412.98;;;22.35;53.77
77537;BME280;67783;51.656;16.106;2023-08-01T02:11:22;100401.98;;;22.29;52.96
77537;BME280;67783;51.656;16.106;2023-08-01T02:14:24;100396.64;;;22.21;53.74
77537;BME280;67783;51.656;16.106;2023-08-01T02:17:25;100386.88;;;22.12;53.64
77537;BME280;67783;51.656;16.106;2023-08-01T02:20:27;100382.04;;;22.07;54.17
77537;BME280;67783;51.656;16.106;2023-08-01T02:23:30;100370.63;;;22.03;54.34
77537;BME280;67783;51.656;16.106;2023-08-01T02:26:34;100371.42;;;21.97;54.50
77537;BME280;67783;51.656;16.106;2023-08-01T02:29:39;100380.19;;;21.93;56.75
77537;BME280;67783;51.656;16.106;2023-08-01T02:32:40;100375.94;;;21.90;54.95
77537;BME280;67783;51.656;16.106;2023-08-01T02:35:43;100379.42;;;21.84;55.73
77537;BME280;67783;51.656;16.106;2023-08-01T02:38:45;100364.29;;;21.82;55.27
77537;BME280;67783;51.656;16.106;2023-08-01T02:41:46;100365.90;;;21.76;55.79
77537;BME280;67783;51.656;16.106;2023-08-01T02:44:48;100350.38;;;21.77;55.52
77537;BME280;67783;51.656;16.106;2023-08-01T02:47:50;100346.79;;;21.76;55.77
77537;BME280;67783;51.656;16.106;2023-08-01T02:50:55;100337.13;;;21.74;57.89
77537;BME280;67783;51.656;16.106;2023-08-01T02:53:56;100338.42;;;21.78;55.81
77537;BME280;67783;51.656;16.106;2023-08-01T02:56:58;100333.78;;;21.78;56.55
77537;BME280;67783;51.656;16.106;2023-08-01T02:59:59;100330.70;;;21.81;55.96
77537;BME280;67783;51.656;16.106;2023-08-01T03:03:01;100321.84;;;21.79;56.38
77537;BME280;67783;51.656;16.106;2023-08-01T03:06:04;100317.68;;;21.83;56.05
77537;BME280;67783;51.656;16.106;2023-08-01T03:09:05;100322.30;;;21.83;56.33
77537;BME280;67783;51.656;16.106;2023-08-01T03:12:10;100329.66;;;21.82;58.12
77537;BME280;67783;51.656;16.106;2023-08-01T03:15:12;100318.34;;;21.85;56.30
77537;BME280;67783;51.656;16.106;2023-08-01T03:18:13;100327.57;;;21.84;56.83
77537;BME280;67783;51.656;16.106;2023-08-01T03:21:15;100312.89;;;21.85;56.28
77537;BME280;67783;51.656;16.106;2023-08-01T03:24:17;100310.56;;;21.82;56.52
77537;BME280;67783;51.656;16.106;2023-08-01T03:27:18;100306.58;;;21.85;56.31
77537;BME280;67783;51.656;16.106;2023-08-01T03:30:21;100309.50;;;21.83;56.43
77537;BME280;67783;51.656;16.106;2023-08-01T03:33:25;100311.20;;;21.84;57.38
77537;BME280;67783;51.656;16.106;2023-08-01T03:36:27;100307.44;;;21.85;56.23
77537;BME280;67783;51.656;16.106;2023-08-01T03:39:29;100303.19;;;21.83;56.67
77537;BME280;67783;51.656;16.106;2023-08-01T03:42:30;100302.82;;;21.86;56.23
77537;BME280;67783;51.656;16.106;2023-08-01T03:45:33;100301.13;;;21.85;56.44
77537;BME280;67783;51.656;16.106;2023-08-01T03:48:34;100292.76;;;21.86;56.37
77537;BME280;67783;51.656;16.106;2023-08-01T03:51:36;100291.05;;;21.85;56.70
77537;BME280;67783;51.656;16.106;2023-08-01T03:54:41;100285.78;;;21.84;58.96
77537;BME280;67783;51.656;16.106;2023-08-01T03:57:42;100280.98;;;21.86;57.01
77537;BME280;67783;51.656;16.106;2023-08-01T04:00:44;100279.69;;;21.82;57.82
77537;BME280;67783;51.656;16.106;2023-08-01T04:03:46;100283.91;;;21.84;57.17
77537;BME280;67783;51.656;16.106;2023-08-01T04:06:48;100268.96;;;21.80;57.58
77537;BME280;67783;51.656;16.106;2023-08-01T04:09:50;100275.90;;;21.83;57.32
77537;BME280;67783;51.656;16.106;2023-08-01T04:12:51;100273.75;;;21.78;57.71
77537;BME280;67783;51.656;16.106;2023-08-01T04:15:56;100276.24;;;21.73;59.89
77537;BME280;67783;51.656;16.106;2023-08-01T04:22:30;100265.23;;;21.67;58.23
